createdAt,value
2018-01-30T00:00:15.694Z,3.83
2018-01-30T00:02:43.201Z,2.93
2018-01-30T00:05:11.464Z,2.97
2018-01-30T00:07:39.066Z,2.90
2018-01-30T00:12:39.452Z,3.60
2018-01-30T00:15:06.949Z,3.43
2018-01-30T00:17:35.229Z,3.13
2018-01-30T00:20:02.758Z,3.33
2018-01-30T00:22:30.285Z,3.27
2018-01-30T00:24:57.813Z,3.77
2018-01-30T00:27:25.336Z,2.77
2018-01-30T00:29:52.861Z,2.60
2018-01-30T00:32:20.372Z,3.40
2018-01-30T00:34:48.651Z,3.50
2018-01-30T00:37:16.912Z,3.20
2018-01-30T00:39:44.434Z,3.50
2018-01-30T00:42:11.966Z,3.60
2018-01-30T00:44:39.473Z,3.00
2018-01-30T00:47:06.970Z,3.13
2018-01-30T00:49:35.261Z,3.50
2018-01-30T00:52:02.763Z,3.47
2018-01-30T00:54:30.264Z,3.27
2018-01-30T00:56:58.532Z,3.77
2018-01-30T00:59:26.804Z,3.23
2018-01-30T01:01:54.305Z,3.80
2018-01-30T01:04:21.813Z,3.40
2018-01-30T01:06:49.309Z,3.47
2018-01-30T01:09:16.825Z,4.10
2018-01-30T01:11:44.377Z,3.90
2018-01-30T01:14:11.897Z,3.90
2018-01-30T01:16:39.419Z,3.67
2018-01-30T01:19:06.937Z,4.83
2018-01-30T01:21:34.509Z,4.07
2018-01-30T01:24:01.989Z,3.77
2018-01-30T01:26:29.480Z,4.03
2018-01-30T01:28:56.987Z,3.40
2018-01-30T01:31:24.500Z,3.30
2018-01-30T01:33:52.049Z,3.80
2018-01-30T01:36:20.320Z,4.20
2018-01-30T01:38:48.622Z,4.00
2018-01-30T01:41:16.147Z,4.90
2018-01-30T01:43:43.673Z,4.00
2018-01-30T01:46:11.945Z,4.07
2018-01-30T01:48:40.212Z,4.43
2018-01-30T01:51:07.705Z,6.57
2018-01-30T01:53:35.221Z,5.20
2018-01-30T01:56:02.736Z,6.40
2018-01-30T01:58:30.221Z,7.70
2018-01-30T02:00:57.733Z,6.80
2018-01-30T02:03:25.265Z,7.90
2018-01-30T02:05:52.814Z,8.53
2018-01-30T02:08:20.316Z,9.97
2018-01-30T02:10:47.825Z,11.03
2018-01-30T02:13:15.331Z,10.63
2018-01-30T02:15:42.918Z,13.17
2018-01-30T02:18:11.208Z,11.80
2018-01-30T02:20:38.716Z,13.80
2018-01-30T02:23:06.224Z,13.90
2018-01-30T02:25:34.544Z,15.37
2018-01-30T02:28:02.814Z,14.10
2018-01-30T02:30:30.336Z,13.70
2018-01-30T02:32:57.859Z,14.80
2018-01-30T02:35:25.376Z,13.47
2018-01-30T02:37:52.889Z,13.17
2018-01-30T02:40:20.419Z,13.97
2018-01-30T02:42:47.935Z,15.20
2018-01-30T02:45:16.220Z,16.03
2018-01-30T02:47:43.727Z,17.03
2018-01-30T02:50:11.248Z,17.50
2018-01-30T02:52:38.761Z,17.07
2018-01-30T02:55:06.753Z,16.27
2018-01-30T02:57:35.054Z,18.40
2018-01-30T03:00:02.639Z,17.97
2018-01-30T03:02:30.205Z,18.57
2018-01-30T03:04:57.765Z,19.93
2018-01-30T03:07:25.278Z,20.07
2018-01-30T03:09:53.902Z,20.60
2018-01-30T03:12:21.531Z,24.70
2018-01-30T03:14:49.038Z,27.07
2018-01-30T03:17:16.566Z,29.23
2018-01-30T03:19:44.122Z,35.77
2018-01-30T03:22:11.655Z,30.60
2018-01-30T03:24:39.961Z,34.30
2018-01-30T03:27:07.485Z,32.07
2018-01-30T03:29:34.993Z,30.07
2018-01-30T03:32:02.765Z,34.57
2018-01-30T03:34:30.301Z,32.83
2018-01-30T03:36:57.833Z,35.80
2018-01-30T03:39:26.122Z,39.07
2018-01-30T03:41:53.653Z,42.00
2018-01-30T03:44:21.171Z,29.73
2018-01-30T03:46:48.722Z,45.67
2018-01-30T03:49:16.241Z,31.90
2018-01-30T03:51:43.747Z,41.93
2018-01-30T03:54:11.261Z,39.57
2018-01-30T03:56:38.780Z,38.20
2018-01-30T03:59:06.285Z,34.37
2018-01-30T04:01:33.797Z,35.93
2018-01-30T04:04:01.285Z,37.30
2018-01-30T04:06:29.121Z,32.10
2018-01-30T04:08:56.631Z,45.40
2018-01-30T04:11:24.931Z,52.53
2018-01-30T04:13:52.425Z,41.80
2018-01-30T04:16:19.945Z,30.27
2018-01-30T04:18:47.485Z,30.30
2018-01-30T04:21:15.821Z,36.47
2018-01-30T04:23:43.326Z,31.93
2018-01-30T04:26:11.598Z,34.93
2018-01-30T04:28:39.117Z,31.43
2018-01-30T04:31:06.641Z,33.93
2018-01-30T04:33:34.153Z,29.20
2018-01-30T04:36:01.662Z,25.70
2018-01-30T04:38:29.180Z,36.27
2018-01-30T04:40:56.741Z,29.27
2018-01-30T04:43:24.237Z,36.43
2018-01-30T04:45:51.761Z,25.90
2018-01-30T04:48:19.253Z,20.67
2018-01-30T04:50:46.785Z,22.27
2018-01-30T04:53:14.337Z,21.23
2018-01-30T04:55:41.838Z,25.93
2018-01-30T04:58:09.418Z,24.53
2018-01-30T05:00:36.925Z,26.63
2018-01-30T05:03:04.498Z,23.03
2018-01-30T05:05:32.773Z,24.47
2018-01-30T05:08:01.082Z,25.17
2018-01-30T05:10:28.605Z,24.90
2018-01-30T05:12:56.205Z,23.27
2018-01-30T05:15:24.086Z,24.60
2018-01-30T05:17:51.617Z,23.73
2018-01-30T05:20:19.121Z,26.27
2018-01-30T05:22:46.881Z,29.70
2018-01-30T05:25:14.445Z,28.90
2018-01-30T05:27:41.999Z,28.87
2018-01-30T05:30:09.542Z,29.07
2018-01-30T05:32:37.323Z,29.17
2018-01-30T05:35:04.824Z,36.23
2018-01-30T05:37:33.162Z,39.57
2018-01-30T05:40:00.669Z,42.03
2018-01-30T05:42:28.949Z,36.60
2018-01-30T05:44:57.205Z,36.90
2018-01-30T05:47:24.756Z,29.70
2018-01-30T05:49:52.268Z,31.97
2018-01-30T05:52:19.787Z,28.97
2018-01-30T05:54:47.313Z,34.07
2018-01-30T06:00:28.496Z,33.60
2018-01-30T06:02:56.057Z,31.73
2018-01-30T06:05:23.559Z,32.10
2018-01-30T06:07:51.106Z,30.23
2018-01-30T06:10:18.617Z,35.60
2018-01-30T06:12:46.117Z,40.23
2018-01-30T06:15:13.653Z,42.10
2018-01-30T06:17:41.185Z,35.53
2018-01-30T06:20:09.499Z,29.33
2018-01-30T06:22:37.021Z,29.40
2018-01-30T06:25:05.347Z,34.13
2018-01-30T06:27:32.860Z,39.27
2018-01-30T06:30:01.150Z,31.70
2018-01-30T06:32:28.666Z,31.37
2018-01-30T06:34:56.201Z,33.47
2018-01-30T06:37:24.462Z,33.73
2018-01-30T06:39:51.994Z,34.27
2018-01-30T06:42:20.269Z,36.23
2018-01-30T06:44:48.565Z,36.97
2018-01-30T06:47:16.072Z,34.53
2018-01-30T06:49:43.606Z,32.43
2018-01-30T06:52:11.118Z,29.80
2018-01-30T06:54:39.391Z,33.47
2018-01-30T06:57:07.657Z,33.63
2018-01-30T06:59:35.187Z,34.27
2018-01-30T07:02:02.698Z,30.63
2018-01-30T07:04:30.998Z,39.50
2018-01-30T07:06:58.515Z,32.63
2018-01-30T07:09:26.034Z,32.33
2018-01-30T07:11:53.618Z,32.83
2018-01-30T07:14:21.153Z,33.23
2018-01-30T07:16:48.738Z,36.17
2018-01-30T07:19:16.262Z,34.67
2018-01-30T07:21:43.833Z,34.40
2018-01-30T07:24:11.383Z,35.17
2018-01-30T07:26:38.892Z,36.47
2018-01-30T07:29:06.405Z,35.50
2018-01-30T07:31:33.914Z,33.07
2018-01-30T07:34:01.407Z,34.47
2018-01-30T07:36:28.921Z,33.93
2018-01-30T07:38:56.430Z,36.07
2018-01-30T07:41:23.925Z,36.07
2018-01-30T07:43:51.470Z,33.33
2018-01-30T07:46:19.784Z,32.53
2018-01-30T07:48:48.093Z,32.90
2018-01-30T07:51:15.603Z,33.17
2018-01-30T07:53:43.122Z,33.73
2018-01-30T07:56:10.617Z,34.53
2018-01-30T07:58:38.140Z,31.30
2018-01-30T08:01:05.656Z,28.90
2018-01-30T08:03:33.167Z,30.73
2018-01-30T08:06:00.710Z,30.50
2018-01-30T08:08:28.245Z,29.83
2018-01-30T08:10:56.555Z,29.23
2018-01-30T08:13:24.078Z,30.10
2018-01-30T08:15:51.587Z,65.47
2018-01-30T08:18:19.146Z,105.60
2018-01-30T08:20:46.766Z,51.53
2018-01-30T08:23:15.056Z,29.40
2018-01-30T08:25:44.211Z,28.93
2018-01-30T08:28:11.746Z,29.53
2018-01-30T08:30:39.285Z,33.17
2018-01-30T08:33:06.822Z,35.17
2018-01-30T08:35:35.089Z,43.27
2018-01-30T08:38:02.629Z,77.43
2018-01-30T08:40:30.152Z,32.73
2018-01-30T08:42:57.689Z,30.07
2018-01-30T08:45:25.293Z,30.80
2018-01-30T08:47:52.816Z,29.67
2018-01-30T08:50:20.318Z,29.27
2018-01-30T08:52:47.846Z,31.00
2018-01-30T08:55:15.361Z,29.53
2018-01-30T08:57:42.870Z,29.90
2018-01-30T09:00:10.389Z,29.90
2018-01-30T09:02:38.736Z,29.47
2018-01-30T09:05:06.262Z,30.13
2018-01-30T09:07:33.795Z,23.63
2018-01-30T09:10:02.103Z,27.67
2018-01-30T09:12:29.667Z,30.80
2018-01-30T09:14:57.224Z,26.63
2018-01-30T09:17:24.748Z,27.77
2018-01-30T09:19:53.046Z,25.23
2018-01-30T09:22:20.561Z,25.73
2018-01-30T09:24:48.071Z,26.93
2018-01-30T09:27:15.601Z,27.10
2018-01-30T09:29:43.865Z,26.97
2018-01-30T09:32:11.694Z,26.33
2018-01-30T09:34:39.201Z,27.23
2018-01-30T09:37:07.488Z,27.57
2018-01-30T09:39:35.758Z,24.17
2018-01-30T09:42:04.033Z,24.33
2018-01-30T09:44:32.306Z,24.83
2018-01-30T09:46:59.796Z,23.30
2018-01-30T09:49:27.341Z,24.67
2018-01-30T09:51:54.838Z,26.30
2018-01-30T09:54:22.367Z,25.77
2018-01-30T09:56:49.869Z,26.17
2018-01-30T09:59:17.396Z,25.83
2018-01-30T10:01:44.920Z,26.13
2018-01-30T10:04:13.267Z,25.73
2018-01-30T10:06:40.772Z,24.57
2018-01-30T10:09:09.074Z,22.87
2018-01-30T10:11:36.594Z,23.07
2018-01-30T10:14:04.108Z,22.80
2018-01-30T10:16:31.628Z,24.33
2018-01-30T10:18:59.178Z,93.43
2018-01-30T10:21:27.464Z,24.27
2018-01-30T10:23:55.757Z,28.13
2018-01-30T10:26:23.258Z,23.30
2018-01-30T10:28:50.803Z,25.23
2018-01-30T10:31:18.318Z,24.53
2018-01-30T10:33:46.585Z,24.27
2018-01-30T10:36:14.883Z,24.73
2018-01-30T10:38:42.402Z,24.13
2018-01-30T10:41:09.945Z,22.60
2018-01-30T10:43:37.450Z,21.20
2018-01-30T10:46:05.722Z,22.77
2018-01-30T10:48:34.008Z,21.10
2018-01-30T10:51:02.299Z,20.30
2018-01-30T10:53:29.841Z,18.20
2018-01-30T10:55:58.156Z,20.67
2018-01-30T10:58:25.665Z,19.93
2018-01-30T11:00:53.169Z,19.43
2018-01-30T11:03:20.691Z,18.40
2018-01-30T11:05:48.998Z,18.90
2018-01-30T11:08:16.531Z,18.57
2018-01-30T11:10:44.841Z,18.03
2018-01-30T11:13:12.361Z,18.20
2018-01-30T11:15:39.883Z,16.03
2018-01-30T11:18:07.381Z,15.80
2018-01-30T11:20:35.715Z,15.17
2018-01-30T11:23:03.218Z,15.87
2018-01-30T11:25:30.701Z,16.40
2018-01-30T11:27:58.201Z,13.33
2018-01-30T11:30:25.724Z,10.97
2018-01-30T11:32:53.279Z,13.57
2018-01-30T11:35:21.542Z,11.17
2018-01-30T11:37:49.830Z,11.10
2018-01-30T11:40:17.325Z,11.23
2018-01-30T11:42:44.836Z,12.37
2018-01-30T11:45:13.112Z,12.60
2018-01-30T11:47:41.377Z,12.87
2018-01-30T11:50:08.886Z,11.33
2018-01-30T11:52:37.204Z,11.33
2018-01-30T11:55:04.711Z,12.03
2018-01-30T11:57:32.229Z,19.03
2018-01-30T11:59:59.782Z,14.70
2018-01-30T12:02:27.306Z,9.87
2018-01-30T12:04:54.830Z,10.07
2018-01-30T12:07:23.104Z,10.60
2018-01-30T12:09:51.377Z,11.47
2018-01-30T12:12:19.705Z,11.40
2018-01-30T12:14:47.213Z,10.27
2018-01-30T12:17:15.523Z,10.90
2018-01-30T12:19:43.051Z,12.13
2018-01-30T12:22:11.318Z,11.83
2018-01-30T12:24:38.841Z,9.57
2018-01-30T12:27:06.353Z,10.37
2018-01-30T12:29:34.631Z,8.87
2018-01-30T12:32:03.277Z,9.00
2018-01-30T12:34:30.797Z,10.67
2018-01-30T12:36:58.302Z,9.53
2018-01-30T12:39:26.601Z,10.03
2018-01-30T12:41:54.862Z,9.40
2018-01-30T12:44:22.377Z,9.47
2018-01-30T12:46:49.877Z,9.33
2018-01-30T12:49:17.385Z,8.90
2018-01-30T12:51:44.881Z,8.53
2018-01-30T12:54:12.401Z,9.07
2018-01-30T12:56:39.910Z,8.90
2018-01-30T12:59:07.443Z,9.07
2018-01-30T13:01:34.946Z,9.83
2018-01-30T13:04:02.450Z,8.73
2018-01-30T13:06:29.961Z,9.73
2018-01-30T13:08:57.449Z,8.97
2018-01-30T13:11:24.992Z,8.40
2018-01-30T13:13:53.270Z,8.87
2018-01-30T13:16:21.544Z,8.73
2018-01-30T13:18:49.821Z,8.90
2018-01-30T13:21:18.180Z,8.73
2018-01-30T13:23:45.682Z,8.47
2018-01-30T13:26:13.191Z,9.20
2018-01-30T13:28:40.696Z,9.10
2018-01-30T13:31:08.205Z,8.77
2018-01-30T13:33:35.713Z,9.03
2018-01-30T13:36:04.059Z,9.33
2018-01-30T13:38:31.569Z,8.50
2018-01-30T13:40:59.093Z,9.07
2018-01-30T13:43:27.382Z,9.43
2018-01-30T13:45:55.656Z,9.07
2018-01-30T13:48:23.933Z,9.93
2018-01-30T13:50:52.213Z,9.77
2018-01-30T13:53:20.478Z,8.40
2018-01-30T13:55:48.765Z,8.40
2018-01-30T13:58:17.034Z,8.70
2018-01-30T14:00:45.333Z,11.00
2018-01-30T14:03:12.837Z,9.53
2018-01-30T14:05:40.350Z,10.73
2018-01-30T14:08:07.868Z,10.03
2018-01-30T14:10:35.373Z,9.17
2018-01-30T14:13:02.926Z,8.27
2018-01-30T14:15:30.419Z,7.77
2018-01-30T14:17:57.921Z,8.20
2018-01-30T14:20:25.430Z,9.33
2018-01-30T14:22:52.930Z,8.00
2018-01-30T14:25:20.437Z,8.97
2018-01-30T14:27:47.948Z,22.03
2018-01-30T14:30:15.454Z,9.17
2018-01-30T14:32:42.961Z,89.33
2018-01-30T14:35:10.517Z,25.40
2018-01-30T14:37:38.000Z,12.97
2018-01-30T14:40:06.257Z,18.80
2018-01-30T14:42:33.730Z,10.90
2018-01-30T14:45:01.980Z,16.70
2018-01-30T14:47:29.452Z,9.73
2018-01-30T14:49:56.934Z,28.53
2018-01-30T14:52:25.176Z,18.53
2018-01-30T14:54:52.656Z,8.93
2018-01-30T14:57:20.129Z,10.47
2018-01-30T14:59:48.377Z,12.90
2018-01-30T15:02:15.850Z,19.97
2018-01-30T15:04:43.320Z,11.57
2018-01-30T15:07:11.560Z,11.90
2018-01-30T15:09:39.043Z,20.33
2018-01-30T15:12:06.512Z,20.27
2018-01-30T15:14:34.756Z,10.00
2018-01-30T15:17:02.242Z,12.67
2018-01-30T15:19:30.485Z,11.27
2018-01-30T15:21:57.964Z,11.40
2018-01-30T15:24:25.432Z,10.27
2018-01-30T15:26:53.680Z,10.00
2018-01-30T15:29:21.153Z,9.03
2018-01-30T15:31:48.629Z,9.23
2018-01-30T15:34:16.868Z,10.17
2018-01-30T15:36:44.345Z,9.83
2018-01-30T15:39:11.818Z,9.50
2018-01-30T15:41:40.076Z,15.40
2018-01-30T15:44:07.552Z,20.20
2018-01-30T15:46:35.801Z,15.60
2018-01-30T15:49:03.278Z,11.33
2018-01-30T15:51:30.761Z,40.43
2018-01-30T15:53:59.001Z,32.87
2018-01-30T15:56:26.484Z,20.47
2018-01-30T15:58:54.733Z,84.67
2018-01-30T16:01:22.232Z,57.40
2018-01-30T16:03:50.472Z,131.53
2018-01-30T16:06:17.948Z,243.93
2018-01-30T16:08:46.211Z,107.83
2018-01-30T16:11:13.684Z,91.87
2018-01-30T16:13:41.936Z,136.97
2018-01-30T16:16:09.413Z,52.10
2018-01-30T16:18:36.904Z,61.60
2018-01-30T16:21:04.380Z,53.47
2018-01-30T16:23:31.860Z,52.23
2018-01-30T16:25:59.333Z,17.40
2018-01-30T16:28:27.588Z,19.17
2018-01-30T16:30:55.060Z,19.63
2018-01-30T16:33:22.550Z,13.20
2018-01-30T16:35:50.792Z,17.83
2018-01-30T16:38:18.296Z,13.10
2018-01-30T16:40:46.536Z,13.77
2018-01-30T16:43:14.017Z,22.67
2018-01-30T16:45:41.495Z,15.90
2018-01-30T16:48:08.973Z,31.33
2018-01-30T16:50:36.457Z,45.90
2018-01-30T16:53:03.928Z,17.37
2018-01-30T16:55:31.425Z,29.23
2018-01-30T16:57:59.665Z,16.37
2018-01-30T17:00:27.148Z,19.30
2018-01-30T17:02:55.791Z,39.43
2018-01-30T17:05:23.275Z,33.60
2018-01-30T17:07:50.748Z,23.77
2018-01-30T17:10:19.026Z,15.87
2018-01-30T17:12:47.293Z,76.57
2018-01-30T17:15:15.614Z,20.03
2018-01-30T17:17:43.109Z,108.30
2018-01-30T17:20:10.592Z,123.23
2018-01-30T17:22:38.055Z,35.13
2018-01-30T17:25:06.314Z,21.10
2018-01-30T17:27:35.292Z,18.30
2018-01-30T17:30:02.765Z,18.47
2018-01-30T17:32:30.244Z,18.80
2018-01-30T17:34:58.482Z,17.70
2018-01-30T17:37:25.972Z,21.20
2018-01-30T17:39:53.440Z,57.83
2018-01-30T17:42:21.704Z,21.57
2018-01-30T17:44:49.172Z,35.50
2018-01-30T17:47:17.461Z,18.37
2018-01-30T17:49:45.688Z,18.33
2018-01-30T17:52:13.173Z,18.93
2018-01-30T17:54:40.640Z,26.40
2018-01-30T17:57:08.887Z,17.47
2018-01-30T17:59:36.361Z,23.27
2018-01-30T18:02:03.840Z,27.17
2018-01-30T18:04:32.072Z,25.63
2018-01-30T18:06:59.553Z,22.33
2018-01-30T18:09:27.066Z,19.13
2018-01-30T18:11:54.560Z,18.63
2018-01-30T18:14:22.025Z,19.37
2018-01-30T18:16:49.509Z,17.77
2018-01-30T18:19:17.759Z,14.87
2018-01-30T18:21:45.232Z,14.03
2018-01-30T18:24:12.717Z,15.67
2018-01-30T18:26:40.181Z,16.80
2018-01-30T18:29:07.665Z,15.90
2018-01-30T18:31:35.141Z,15.30
2018-01-30T18:34:02.996Z,15.13
2018-01-30T18:36:30.472Z,15.00
2018-01-30T18:39:20.831Z,16.20
2018-01-30T18:41:48.308Z,15.93
2018-01-30T18:44:15.792Z,14.43
2018-01-30T18:46:43.261Z,15.90
2018-01-30T18:49:10.744Z,14.97
2018-01-30T18:51:38.226Z,17.57
2018-01-30T18:54:05.705Z,18.83
2018-01-30T18:56:33.182Z,14.13
2018-01-30T18:59:00.708Z,14.90
2018-01-30T19:01:28.176Z,14.47
2018-01-30T19:03:55.708Z,21.87
2018-01-30T19:06:23.226Z,13.20
2018-01-30T19:08:50.738Z,13.27
2018-01-30T19:11:18.217Z,13.67
2018-01-30T19:13:45.709Z,13.93
2018-01-30T19:16:13.240Z,13.90
2018-01-30T19:18:40.789Z,13.27
2018-01-30T19:21:08.260Z,13.37
2018-01-30T19:23:35.732Z,13.73
2018-01-30T19:26:03.268Z,12.50
2018-01-30T19:28:30.745Z,12.17
2018-01-30T19:30:58.275Z,12.20
2018-01-30T19:33:25.800Z,12.47
2018-01-30T19:35:53.341Z,13.00
2018-01-30T19:38:20.807Z,11.40
2018-01-30T19:40:49.057Z,11.47
2018-01-30T19:43:16.579Z,11.83
2018-01-30T19:45:44.103Z,10.70
2018-01-30T19:48:12.358Z,10.00
2018-01-30T19:50:39.832Z,11.17
2018-01-30T19:53:08.361Z,10.33
2018-01-30T19:55:35.887Z,9.83
2018-01-30T19:58:04.120Z,10.27
2018-01-30T20:00:31.647Z,8.47
2018-01-30T20:02:59.125Z,9.20
2018-01-30T20:05:26.647Z,8.70
2018-01-30T20:07:55.717Z,10.03
2018-01-30T20:10:23.549Z,8.90
2018-01-30T20:12:51.025Z,9.43
2018-01-30T20:15:18.540Z,9.97
2018-01-30T20:17:46.076Z,8.87
2018-01-30T20:20:14.308Z,9.77
2018-01-30T20:22:41.840Z,9.90
2018-01-30T20:25:09.308Z,9.47
2018-01-30T20:27:36.785Z,9.80
2018-01-30T20:30:04.303Z,10.03
2018-01-30T20:32:31.834Z,11.17
2018-01-30T20:34:59.353Z,10.80
2018-01-30T20:37:26.833Z,10.33
2018-01-30T20:39:54.304Z,10.90
2018-01-30T20:42:21.788Z,9.80
2018-01-30T20:44:50.081Z,10.47
2018-01-30T20:47:17.609Z,10.57
2018-01-30T20:49:45.119Z,9.83
2018-01-30T20:52:12.640Z,8.10
2018-01-30T20:54:40.885Z,7.73
2018-01-30T20:57:08.408Z,7.37
2018-01-30T20:59:36.188Z,7.83
2018-01-30T21:02:03.708Z,6.37
2018-01-30T21:04:31.939Z,5.67
2018-01-30T21:06:59.464Z,6.63
2018-01-30T21:09:26.979Z,5.70
2018-01-30T21:11:54.489Z,6.80
2018-01-30T21:14:21.966Z,7.00
2018-01-30T21:16:49.433Z,6.43
2018-01-30T21:19:16.961Z,6.47
2018-01-30T21:21:44.475Z,7.03
2018-01-30T21:24:11.953Z,6.27
2018-01-30T21:26:40.227Z,7.80
2018-01-30T21:29:08.520Z,8.20
2018-01-30T21:31:35.992Z,7.30
2018-01-30T21:34:03.468Z,6.97
2018-01-30T21:36:30.992Z,6.47
2018-01-30T21:38:58.484Z,8.07
2018-01-30T21:41:26.029Z,7.97
2018-01-30T21:43:53.481Z,6.70
2018-01-30T21:46:20.960Z,8.30
2018-01-30T21:48:48.428Z,11.03
2018-01-30T21:51:15.908Z,6.83
2018-01-30T21:53:43.376Z,7.53
2018-01-30T21:56:11.619Z,13.40
2018-01-30T21:58:39.084Z,8.80
2018-01-30T22:01:06.620Z,7.57
2018-01-30T22:03:34.088Z,9.97
2018-01-30T22:06:01.564Z,8.43
2018-01-30T22:08:29.038Z,9.33
2018-01-30T22:10:56.563Z,12.63
2018-01-30T22:13:24.038Z,7.33
2018-01-30T22:15:51.545Z,9.00
2018-01-30T22:18:19.079Z,8.23
2018-01-30T22:20:47.363Z,8.03
2018-01-30T22:23:15.634Z,10.30
2018-01-30T22:25:43.181Z,7.97
2018-01-30T22:28:10.719Z,8.00
2018-01-30T22:30:38.269Z,24.47
2018-01-30T22:33:05.811Z,7.33
2018-01-30T22:35:33.432Z,8.23
2018-01-30T22:38:00.941Z,8.13
2018-01-30T22:40:28.437Z,7.97
2018-01-30T22:42:55.945Z,6.80
2018-01-30T22:45:23.530Z,6.50
